Time;durP1;ratioP1;P1;durP2;ratioP2;P2;SDS_P1;SDS_P2;PMS_P1;PMS_P2;Temp;Humidity;BMP_temperature;BMP_pressure;BME280_temperature;BME280_humidity;BME280_pressure;Samples;Min_cycle;Max_cycle;Signal;HPM_P1;HPM_P2
2024/02/18 00:00:31;;;;;;;7.85;5.53;;;10.50;99.90;;;;;;5025237;28;20040;-74
2024/02/18 00:02:57;;;;;;;8.15;5.63;;;10.40;99.90;;;;;;5015919;28;20033;-75
2024/02/18 00:05:24;;;;;;;7.88;5.70;;;10.40;99.90;;;;;;5015739;28;20053;-76
2024/02/18 00:07:50;;;;;;;10.07;5.57;;;10.30;99.90;;;;;;5015332;28;20029;-75
2024/02/18 00:10:17;;;;;;;8.95;5.80;;;10.20;99.90;;;;;;5017354;28;20332;-75
2024/02/18 00:12:44;;;;;;;7.55;5.60;;;10.20;99.90;;;;;;5017204;28;20037;-73
2024/02/18 00:15:10;;;;;;;7.70;5.53;;;10.20;99.90;;;;;;4986733;28;20061;-73
2024/02/18 00:17:36;;;;;;;13.52;6.53;;;10.10;99.90;;;;;;5028731;28;20041;-75
2024/02/18 00:20:04;;;;;;;9.70;7.10;;;10.10;99.90;;;;;;5014696;28;20473;-76
2024/02/18 00:22:30;;;;;;;11.90;6.82;;;10.10;99.90;;;;;;5019626;28;20037;-75
2024/02/18 00:24:56;;;;;;;10.77;7.78;;;10.10;99.90;;;;;;5000609;28;20042;-74
2024/02/18 00:27:23;;;;;;;10.75;5.75;;;10.10;99.90;;;;;;4997089;28;20038;-75
2024/02/18 00:29:49;;;;;;;12.38;6.50;;;10.20;99.90;;;;;;4981609;28;20033;-74
2024/02/18 00:32:15;;;;;;;9.80;6.63;;;10.20;99.90;;;;;;4997456;28;20033;-76
2024/02/18 00:34:42;;;;;;;8.13;5.88;;;10.20;99.90;;;;;;5012785;28;20037;-76
2024/02/18 00:37:08;;;;;;;9.65;6.53;;;10.20;99.90;;;;;;5014816;28;20032;-73
2024/02/18 00:39:34;;;;;;;10.13;6.70;;;10.20;99.90;;;;;;5013204;28;20034;-75
2024/02/18 00:42:01;;;;;;;9.55;6.28;;;10.20;99.90;;;;;;5001547;28;20691;-75
2024/02/18 00:44:27;;;;;;;7.93;5.60;;;10.20;99.90;;;;;;4999202;28;20625;-75
2024/02/18 00:46:53;;;;;;;10.25;5.80;;;10.20;99.90;;;;;;4981599;28;20037;-75
2024/02/18 00:49:21;;;;;;;10.77;6.82;;;10.20;99.90;;;;;;5010956;28;20132;-76
2024/02/18 00:51:47;;;;;;;9.57;5.15;;;10.20;99.90;;;;;;5031525;28;20626;-74
2024/02/18 00:54:13;;;;;;;10.48;6.07;;;10.20;99.90;;;;;;5015976;28;20038;-76
2024/02/18 00:56:40;;;;;;;9.85;5.78;;;10.20;99.90;;;;;;5015573;28;20064;-75
2024/02/18 00:59:06;;;;;;;10.05;6.07;;;10.20;99.90;;;;;;5000047;28;20037;-72
2024/02/18 01:01:33;;;;;;;10.00;5.25;;;10.10;99.90;;;;;;4985343;28;20036;-75
2024/02/18 01:04:00;;;;;;;7.50;5.40;;;10.10;99.90;;;;;;5014905;28;20033;-72
2024/02/18 01:06:26;;;;;;;11.68;5.85;;;10.10;99.90;;;;;;5009821;28;20041;-74
2024/02/18 01:08:53;;;;;;;7.25;5.25;;;10.00;99.90;;;;;;5013716;28;20037;-75
2024/02/18 01:11:19;;;;;;;11.77;6.30;;;10.00;99.90;;;;;;4982141;28;20026;-76
2024/02/18 01:13:46;;;;;;;8.55;5.78;;;10.00;99.90;;;;;;5016734;28;20500;-75
2024/02/18 01:16:12;;;;;;;9.35;5.78;;;10.00;99.90;;;;;;5016972;28;20032;-75
2024/02/18 01:18:40;;;;;;;8.40;5.03;;;10.00;99.90;;;;;;5014671;28;20400;-76
2024/02/18 01:21:06;;;;;;;10.00;5.53;;;10.00;99.90;;;;;;5007281;28;20048;-74
2024/02/18 01:23:33;;;;;;;9.13;5.13;;;10.00;99.90;;;;;;5016619;28;21228;-75
2024/02/18 01:25:59;;;;;;;10.48;4.30;;;10.00;99.90;;;;;;5001831;28;20035;-74
2024/02/18 01:28:25;;;;;;;10.77;4.65;;;10.00;99.90;;;;;;4995021;28;20033;-75
2024/02/18 01:30:52;;;;;;;9.98;3.97;;;10.00;99.90;;;;;;5004090;28;20037;-75
2024/02/18 01:33:20;;;;;;;5.80;4.57;;;10.00;99.90;;;;;;4983957;28;20045;-76
2024/02/18 01:35:46;;;;;;;11.80;5.13;;;10.00;99.90;;;;;;4999931;28;20037;-72
2024/02/18 01:38:13;;;;;;;7.53;4.72;;;10.00;99.90;;;;;;4998530;28;20037;-75
2024/02/18 01:40:40;;;;;;;9.65;5.28;;;10.00;99.90;;;;;;5014668;28;20060;-75
2024/02/18 01:43:06;;;;;;;9.73;4.85;;;10.10;99.90;;;;;;4997478;28;20052;-75
2024/02/18 01:45:33;;;;;;;8.80;4.88;;;10.10;99.90;;;;;;5018114;28;20437;-73
2024/02/18 01:48:00;;;;;;;10.57;4.10;;;10.10;99.90;;;;;;5019606;28;20592;-76
2024/02/18 01:50:28;;;;;;;8.27;3.90;;;10.10;99.90;;;;;;5018366;28;20036;-75
2024/02/18 01:52:55;;;;;;;8.20;4.25;;;10.20;99.90;;;;;;4987827;28;20041;-72
2024/02/18 01:55:23;;;;;;;12.23;5.85;;;10.20;99.90;;;;;;5023267;28;20040;-76
2024/02/18 01:57:50;;;;;;;13.65;6.07;;;10.20;99.90;;;;;;5020512;28;20025;-76
2024/02/18 02:00:17;;;;;;;6.93;4.28;;;10.20;99.90;;;;;;5024169;28;20033;-74
2024/02/18 02:02:47;;;;;;;8.02;4.00;;;10.20;99.90;;;;;;5022108;28;20044;-73
2024/02/18 02:05:17;;;;;;;11.95;4.20;;;10.20;99.90;;;;;;5019846;28;20025;-76
2024/02/18 02:07:44;;;;;;;11.00;5.15;;;10.30;99.90;;;;;;5019658;28;20030;-75
2024/02/18 02:10:12;;;;;;;9.85;4.82;;;10.30;99.90;;;;;;5004413;28;20045;-76
2024/02/18 02:12:40;;;;;;;6.22;4.00;;;10.30;99.90;;;;;;5000165;28;20048;-74
2024/02/18 02:15:09;;;;;;;7.97;4.13;;;10.30;99.90;;;;;;5018167;28;20029;-75
2024/02/18 02:17:39;;;;;;;7.30;3.55;;;10.30;99.90;;;;;;5048314;28;20037;-74
2024/02/18 02:20:10;;;;;;;7.32;3.72;;;10.30;99.90;;;;;;5017415;28;21589;-75
2024/02/18 02:22:37;;;;;;;7.97;4.18;;;10.30;99.90;;;;;;5020749;28;20037;-75
2024/02/18 02:25:04;;;;;;;8.50;4.32;;;10.30;99.90;;;;;;4981792;28;20042;-75
2024/02/18 02:27:36;;;;;;;6.53;3.88;;;10.30;99.90;;;;;;5005588;28;20041;-76
2024/02/18 02:30:03;;;;;;;8.38;4.20;;;10.30;99.90;;;;;;5004431;28;20037;-74
2024/02/18 02:32:31;;;;;;;9.40;3.92;;;10.30;99.90;;;;;;5005646;28;20043;-76
2024/02/18 02:34:58;;;;;;;9.02;4.20;;;10.40;99.90;;;;;;4988466;28;20048;-75
2024/02/18 02:37:25;;;;;;;9.82;4.07;;;10.40;99.90;;;;;;5003094;28;20741;-76
2024/02/18 02:39:51;;;;;;;8.23;5.28;;;10.40;99.90;;;;;;5016522;28;20025;-74
2024/02/18 02:42:18;;;;;;;8.77;4.40;;;10.40;99.90;;;;;;5002108;28;20029;-73
2024/02/18 02:44:44;;;;;;;8.55;5.18;;;10.40;99.90;;;;;;5021395;28;20034;-76
2024/02/18 02:47:10;;;;;;;12.45;6.25;;;10.40;99.90;;;;;;5017280;28;20034;-76
2024/02/18 02:49:37;;;;;;;7.72;4.47;;;10.40;99.90;;;;;;5015322;28;20583;-75
2024/02/18 02:52:04;;;;;;;10.25;4.10;;;10.50;99.90;;;;;;5017493;28;20033;-76
2024/02/18 02:54:30;;;;;;;9.52;3.83;;;10.50;99.90;;;;;;5031301;28;20054;-76
2024/02/18 02:56:56;;;;;;;11.50;4.78;;;10.50;99.90;;;;;;5004685;28;20444;-75
2024/02/18 02:59:24;;;;;;;11.88;4.80;;;10.50;99.90;;;;;;5020460;28;20029;-76
2024/02/18 03:01:50;;;;;;;8.48;4.13;;;10.50;99.90;;;;;;5002904;28;20037;-76
2024/02/18 03:04:17;;;;;;;9.85;4.13;;;10.50;99.90;;;;;;5017752;28;20037;-76
2024/02/18 03:06:43;;;;;;;10.60;4.45;;;10.50;99.90;;;;;;5002810;28;20033;-73
2024/02/18 03:09:12;;;;;;;7.32;4.13;;;10.50;99.90;;;;;;5001190;28;20445;-76
2024/02/18 03:11:38;;;;;;;10.25;4.10;;;10.50;99.90;;;;;;5017270;28;20037;-76
2024/02/18 03:14:04;;;;;;;8.48;3.50;;;10.50;99.90;;;;;;5018947;28;20041;-75
2024/02/18 03:16:31;;;;;;;9.32;4.00;;;10.50;99.90;;;;;;5016019;28;20365;-75
2024/02/18 03:18:57;;;;;;;8.93;4.75;;;10.60;99.90;;;;;;4999534;28;20046;-75
2024/02/18 03:21:24;;;;;;;9.05;4.05;;;10.60;99.90;;;;;;5018799;28;20361;-73
2024/02/18 03:23:53;;;;;;;7.80;4.05;;;10.60;99.90;;;;;;5032723;28;20472;-75
2024/02/18 03:26:19;;;;;;;8.57;3.38;;;10.60;99.90;;;;;;4999461;28;20492;-73
2024/02/18 03:28:46;;;;;;;8.10;4.47;;;10.50;99.90;;;;;;5019861;28;20717;-74
2024/02/18 03:31:19;;;;;;;7.55;3.80;;;10.50;99.90;;;;;;5016625;28;20044;-74
2024/02/18 03:33:46;;;;;;;9.02;3.72;;;10.50;99.90;;;;;;5017733;28;20041;-76
2024/02/18 03:36:13;;;;;;;7.20;3.60;;;10.50;99.90;;;;;;5003902;28;20408;-75
2024/02/18 03:38:39;;;;;;;8.10;3.13;;;10.50;99.90;;;;;;4982411;28;20031;-75
2024/02/18 03:41:07;;;;;;;9.38;3.05;;;10.50;99.90;;;;;;5018575;28;20033;-76
2024/02/18 03:43:34;;;;;;;8.40;3.78;;;10.50;99.90;;;;;;5012503;28;20037;-72
2024/02/18 03:46:01;;;;;;;6.32;3.03;;;10.50;99.90;;;;;;4998051;28;20374;-76
2024/02/18 03:48:28;;;;;;;6.30;3.00;;;10.50;99.90;;;;;;4985976;28;20045;-74
2024/02/18 03:50:54;;;;;;;10.23;3.35;;;10.50;99.90;;;;;;5017005;28;20041;-74
2024/02/18 03:53:21;;;;;;;6.45;3.08;;;10.50;99.90;;;;;;5017842;28;20053;-75
2024/02/18 03:55:47;;;;;;;8.63;3.70;;;10.50;99.90;;;;;;5007909;28;20126;-74
2024/02/18 03:58:14;;;;;;;8.18;3.60;;;10.50;99.90;;;;;;5004986;28;20523;-75
2024/02/18 04:00:45;;;;;;;7.90;3.92;;;10.50;99.90;;;;;;4983571;28;20044;-71
2024/02/18 04:03:15;;;;;;;7.53;3.72;;;10.40;99.90;;;;;;5014679;28;20101;-72
2024/02/18 04:05:41;;;;;;;7.03;3.20;;;10.50;99.90;;;;;;5046678;28;20454;-75
2024/02/18 04:08:08;;;;;;;4.38;3.05;;;10.50;99.90;;;;;;5017971;28;20432;-72
2024/02/18 04:10:35;;;;;;;7.32;3.17;;;10.50;99.90;;;;;;5001604;28;20049;-76
2024/02/18 04:13:01;;;;;;;8.38;3.67;;;10.40;99.90;;;;;;5001112;28;20216;-75
2024/02/18 04:15:27;;;;;;;7.22;3.15;;;10.40;99.90;;;;;;5004229;28;20511;-75
2024/02/18 04:17:54;;;;;;;6.47;3.65;;;10.40;99.90;;;;;;4996986;28;20029;-71
2024/02/18 04:20:21;;;;;;;11.55;3.63;;;10.40;99.90;;;;;;5001436;28;20045;-75
2024/02/18 04:22:48;;;;;;;8.65;3.97;;;10.40;99.90;;;;;;5032204;28;20029;-75
2024/02/18 04:25:14;;;;;;;14.07;4.30;;;10.40;99.90;;;;;;5019298;28;20034;-75
2024/02/18 04:27:41;;;;;;;14.45;4.32;;;10.40;99.90;;;;;;5002459;28;20032;-72
2024/02/18 04:30:08;;;;;;;9.90;4.07;;;10.40;99.90;;;;;;5014090;28;20044;-75
2024/02/18 04:32:34;;;;;;;10.27;4.65;;;10.40;99.90;;;;;;5001704;28;20033;-73
2024/02/18 04:35:00;;;;;;;9.93;3.95;;;10.40;99.90;;;;;;5030385;28;20053;-76
2024/02/18 04:37:27;;;;;;;7.20;4.30;;;10.30;99.90;;;;;;5001867;28;20040;-76
2024/02/18 04:39:53;;;;;;;6.47;3.92;;;10.30;99.90;;;;;;4983730;28;20045;-73
2024/02/18 04:42:19;;;;;;;6.70;3.97;;;10.30;99.90;;;;;;5028423;28;20052;-76
2024/02/18 04:44:46;;;;;;;14.55;4.28;;;10.30;99.90;;;;;;5017015;28;20033;-77
2024/02/18 04:47:12;;;;;;;9.05;4.63;;;10.30;99.90;;;;;;5016470;28;20025;-77
2024/02/18 04:49:39;;;;;;;18.20;5.65;;;10.30;99.90;;;;;;5017863;28;20029;-77
2024/02/18 04:52:06;;;;;;;5.63;4.10;;;10.30;99.90;;;;;;4985436;28;20033;-76
2024/02/18 04:54:33;;;;;;;11.40;4.25;;;10.20;99.90;;;;;;4998567;28;20041;-75
2024/02/18 04:57:02;;;;;;;10.68;4.57;;;10.20;99.90;;;;;;5016197;28;20029;-77
2024/02/18 04:59:29;;;;;;;9.00;4.45;;;10.20;99.90;;;;;;5002819;28;20044;-75
2024/02/18 05:01:55;;;;;;;7.45;4.35;;;10.20;99.90;;;;;;5012913;28;20423;-78
2024/02/18 05:04:29;;;;;;;11.52;4.55;;;10.10;99.90;;;;;;5012085;28;20030;-77
2024/02/18 05:06:55;;;;;;;10.82;4.93;;;10.10;99.90;;;;;;4985212;28;20041;-75
2024/02/18 05:09:22;;;;;;;8.32;4.40;;;10.10;99.90;;;;;;5016051;28;20033;-77
2024/02/18 05:11:48;;;;;;;8.23;4.32;;;10.10;99.90;;;;;;4995309;28;20037;-78
2024/02/18 05:14:14;;;;;;;11.10;4.68;;;10.00;99.90;;;;;;4987822;28;20044;-78
2024/02/18 05:16:41;;;;;;;12.35;5.10;;;10.00;99.90;;;;;;4984682;28;20033;-77
2024/02/18 05:19:07;;;;;;;12.68;5.00;;;10.00;99.90;;;;;;5046275;28;20029;-77
2024/02/18 05:21:33;;;;;;;13.75;5.18;;;10.00;99.90;;;;;;5003353;28;20033;-78
2024/02/18 05:24:00;;;;;;;8.30;4.18;;;9.90;99.90;;;;;;5005799;28;20036;-78
2024/02/18 05:26:29;;;;;;;9.57;4.72;;;9.90;99.90;;;;;;5033814;28;20037;-72
2024/02/18 05:28:55;;;;;;;10.55;4.68;;;9.90;99.90;;;;;;5036329;28;20543;-79
2024/02/18 05:31:24;;;;;;;8.77;4.22;;;9.80;99.90;;;;;;5021924;28;20033;-77
2024/02/18 05:33:51;;;;;;;12.70;5.57;;;9.80;99.90;;;;;;5018408;28;20479;-79
2024/02/18 05:36:18;;;;;;;9.05;4.40;;;9.80;99.90;;;;;;5004792;28;20572;-77
2024/02/18 05:38:44;;;;;;;10.10;5.00;;;9.80;99.90;;;;;;5002214;28;20037;-78
2024/02/18 05:41:11;;;;;;;14.63;5.70;;;9.80;99.90;;;;;;5020600;28;20033;-79
2024/02/18 05:43:38;;;;;;;13.43;6.22;;;9.80;99.90;;;;;;5023659;28;20030;-79
2024/02/18 05:46:07;;;;;;;9.27;4.63;;;9.70;99.90;;;;;;5038273;28;20487;-79
2024/02/18 05:48:34;;;;;;;10.43;4.88;;;9.70;99.90;;;;;;4994733;28;20518;-78
2024/02/18 05:51:01;;;;;;;8.55;4.15;;;9.70;99.90;;;;;;5007914;28;20587;-77
2024/02/18 05:53:27;;;;;;;10.13;5.07;;;9.60;99.90;;;;;;5019625;28;20241;-73
2024/02/18 05:55:54;;;;;;;13.98;6.07;;;9.70;99.90;;;;;;5017336;28;20488;-77
2024/02/18 05:58:20;;;;;;;10.18;5.60;;;9.60;99.90;;;;;;5016030;28;20044;-77
2024/02/18 06:00:47;;;;;;;12.05;5.22;;;9.60;99.90;;;;;;5016449;28;21418;-75
2024/02/18 06:03:13;;;;;;;10.07;5.00;;;9.60;99.90;;;;;;5017952;28;20045;-73
2024/02/18 06:05:41;;;;;;;11.85;6.18;;;9.60;99.90;;;;;;5020721;28;20049;-77
2024/02/18 06:08:08;;;;;;;15.75;5.95;;;9.60;99.90;;;;;;5016992;28;20036;-76
2024/02/18 06:10:34;;;;;;;7.63;5.40;;;9.50;99.90;;;;;;4998991;28;20040;-77
2024/02/18 06:13:00;;;;;;;15.00;5.80;;;9.50;99.90;;;;;;5020758;28;20504;-76
2024/02/18 06:15:27;;;;;;;11.07;5.88;;;9.50;99.90;;;;;;4984440;28;20048;-76
2024/02/18 06:17:57;;;;;;;10.73;6.30;;;9.50;99.90;;;;;;5004866;28;20044;-77
2024/02/18 06:20:25;;;;;;;11.32;5.45;;;9.50;99.90;;;;;;5014802;28;20440;-77
2024/02/18 06:22:52;;;;;;;8.77;5.47;;;9.50;99.90;;;;;;5003126;28;20033;-76
2024/02/18 06:25:18;;;;;;;9.70;5.53;;;9.50;99.90;;;;;;5002952;28;20029;-75
2024/02/18 06:27:45;;;;;;;16.25;6.90;;;9.50;99.90;;;;;;5017781;28;20504;-76
2024/02/18 06:30:12;;;;;;;11.63;6.75;;;9.50;99.90;;;;;;5017568;28;20040;-75
2024/02/18 06:32:38;;;;;;;14.57;7.03;;;9.40;99.90;;;;;;5018958;28;20052;-76
2024/02/18 06:35:05;;;;;;;16.60;7.18;;;9.40;99.90;;;;;;4996554;28;20045;-75
2024/02/18 06:37:31;;;;;;;11.52;6.22;;;9.40;99.90;;;;;;5002163;28;20041;-76
2024/02/18 06:39:58;;;;;;;11.02;6.38;;;9.40;99.90;;;;;;5003670;28;20499;-76
2024/02/18 06:42:24;;;;;;;12.77;7.85;;;9.40;99.90;;;;;;5014818;28;20384;-77
2024/02/18 06:44:50;;;;;;;12.75;6.57;;;9.40;99.90;;;;;;5002698;28;20617;-76
2024/02/18 06:47:17;;;;;;;11.88;6.40;;;9.40;99.90;;;;;;5002848;28;20059;-76
2024/02/18 06:49:43;;;;;;;11.00;5.93;;;9.40;99.90;;;;;;5003844;28;20029;-74
2024/02/18 06:52:10;;;;;;;13.85;6.50;;;9.40;99.90;;;;;;5002064;28;20033;-77
2024/02/18 06:54:36;;;;;;;13.05;6.55;;;9.40;99.90;;;;;;5002828;28;20442;-75
2024/02/18 06:57:03;;;;;;;15.77;6.25;;;9.30;99.90;;;;;;5019505;28;20362;-76
2024/02/18 06:59:29;;;;;;;12.52;6.40;;;9.30;99.90;;;;;;5002096;28;20029;-75
2024/02/18 07:01:56;;;;;;;14.20;5.75;;;9.30;99.90;;;;;;5021729;28;20036;-75
2024/02/18 07:04:24;;;;;;;13.30;5.72;;;9.30;99.90;;;;;;4998645;28;20034;-73
2024/02/18 07:06:50;;;;;;;13.20;6.13;;;9.30;99.90;;;;;;5020340;28;20032;-76
2024/02/18 07:09:16;;;;;;;13.20;6.50;;;9.30;99.90;;;;;;5017499;28;20037;-74
2024/02/18 07:11:42;;;;;;;12.20;5.10;;;9.30;99.90;;;;;;5001983;28;20637;-74
2024/02/18 07:14:09;;;;;;;10.60;5.40;;;9.30;99.90;;;;;;4983886;28;20432;-73
2024/02/18 07:16:35;;;;;;;9.30;5.00;;;9.30;99.90;;;;;;5016088;28;20064;-75
2024/02/18 07:19:01;;;;;;;10.88;5.32;;;9.30;99.90;;;;;;5000284;28;20043;-74
2024/02/18 07:21:28;;;;;;;11.38;5.25;;;9.30;99.90;;;;;;5019816;28;20029;-76
2024/02/18 07:23:54;;;;;;;12.30;5.38;;;9.30;99.90;;;;;;5000044;28;20053;-74
2024/02/18 07:26:20;;;;;;;11.30;6.00;;;9.30;99.90;;;;;;5001741;28;20029;-74
2024/02/18 07:28:46;;;;;;;11.63;5.30;;;9.30;99.90;;;;;;5004529;28;20040;-75
2024/02/18 07:31:13;;;;;;;10.98;5.85;;;9.30;99.90;;;;;;5003797;28;20067;-76
2024/02/18 07:33:39;;;;;;;13.05;5.07;;;9.30;99.90;;;;;;5048769;28;20037;-76
2024/02/18 07:36:07;;;;;;;13.82;5.10;;;9.30;99.90;;;;;;4996194;28;20423;-76
2024/02/18 07:38:33;;;;;;;11.60;4.75;;;9.30;99.90;;;;;;5017983;28;20060;-77
2024/02/18 07:41:00;;;;;;;7.65;4.68;;;9.30;99.90;;;;;;5002667;28;20033;-77
2024/02/18 07:43:26;;;;;;;10.82;4.13;;;9.30;99.90;;;;;;5012458;28;20040;-77
2024/02/18 07:45:54;;;;;;;11.68;4.72;;;9.30;99.90;;;;;;5013869;28;20065;-75
2024/02/18 07:48:20;;;;;;;11.23;5.20;;;9.30;99.90;;;;;;5015045;28;20037;-76
2024/02/18 07:50:46;;;;;;;17.05;5.93;;;9.40;99.90;;;;;;4998720;28;20034;-77
2024/02/18 07:53:13;;;;;;;8.38;4.93;;;9.30;99.90;;;;;;5011845;28;20033;-77
2024/02/18 07:55:39;;;;;;;11.25;5.90;;;9.30;99.90;;;;;;5013138;28;20042;-74
2024/02/18 07:58:05;;;;;;;9.13;5.60;;;9.30;99.90;;;;;;5012793;28;20041;-76
2024/02/18 08:00:32;;;;;;;8.65;5.40;;;9.30;99.90;;;;;;5012975;28;20037;-77
2024/02/18 08:02:58;;;;;;;6.90;4.75;;;9.30;99.90;;;;;;4983902;28;20045;-77
2024/02/18 08:05:24;;;;;;;11.00;5.32;;;9.30;99.90;;;;;;5017215;28;20033;-75
2024/02/18 08:07:51;;;;;;;11.75;6.88;;;9.30;99.90;;;;;;5016675;28;20041;-75
2024/02/18 08:10:17;;;;;;;13.88;6.32;;;9.30;99.90;;;;;;4980546;28;20743;-76
2024/02/18 08:12:43;;;;;;;14.07;6.40;;;9.40;99.90;;;;;;5015058;28;20025;-76
2024/02/18 08:15:09;;;;;;;9.02;5.28;;;9.40;99.90;;;;;;5013950;28;20041;-76
2024/02/18 08:17:36;;;;;;;12.85;6.22;;;9.30;99.90;;;;;;5004477;28;20462;-76
2024/02/18 08:20:02;;;;;;;12.57;6.15;;;9.30;99.90;;;;;;5017482;28;20037;-76
2024/02/18 08:22:29;;;;;;;12.57;5.97;;;9.30;99.90;;;;;;5015682;28;20528;-78
2024/02/18 08:24:55;;;;;;;12.70;5.65;;;9.30;99.90;;;;;;4999962;28;20476;-77
2024/02/18 08:27:21;;;;;;;13.05;6.10;;;9.30;99.90;;;;;;5015442;28;20029;-75
2024/02/18 08:29:48;;;;;;;14.60;7.05;;;9.30;99.90;;;;;;5005618;28;20032;-77
2024/02/18 08:32:15;;;;;;;15.80;6.97;;;9.30;99.90;;;;;;4986009;28;20051;-76
2024/02/18 08:34:41;;;;;;;15.80;6.53;;;9.30;99.90;;;;;;5014995;28;20480;-77
2024/02/18 08:37:08;;;;;;;16.90;7.15;;;9.20;99.90;;;;;;5003221;28;20036;-77
2024/02/18 08:39:35;;;;;;;9.90;6.18;;;9.20;99.90;;;;;;5016095;28;20025;-80
2024/02/18 08:42:01;;;;;;;18.38;7.25;;;9.20;99.90;;;;;;5018825;28;20374;-82
2024/02/18 08:44:28;;;;;;;12.13;6.50;;;9.20;99.90;;;;;;5020107;28;20033;-78
2024/02/18 08:46:54;;;;;;;12.50;6.65;;;9.10;99.90;;;;;;5016860;28;20763;-79
2024/02/18 08:49:21;;;;;;;14.02;7.82;;;9.10;99.90;;;;;;5017116;28;20028;-76
2024/02/18 08:51:47;;;;;;;9.55;6.65;;;9.10;99.90;;;;;;5000535;28;20045;-79
2024/02/18 08:54:14;;;;;;;12.05;7.15;;;9.10;99.90;;;;;;4999987;28;20084;-81
2024/02/18 08:56:40;;;;;;;9.80;6.13;;;9.10;99.90;;;;;;5017240;28;20029;-80
2024/02/18 08:59:09;;;;;;;10.60;6.45;;;9.10;99.90;;;;;;4996924;28;20041;-81
2024/02/18 09:01:36;;;;;;;15.50;7.15;;;9.10;99.90;;;;;;5001775;28;20048;-81
2024/02/18 09:04:02;;;;;;;12.00;6.20;;;9.10;99.90;;;;;;5033429;28;20369;-82
2024/02/18 09:06:29;;;;;;;16.45;8.15;;;9.10;99.90;;;;;;5001100;28;20564;-79
2024/02/18 09:08:55;;;;;;;15.80;8.43;;;9.10;99.90;;;;;;4999837;28;20052;-83
2024/02/18 09:11:22;;;;;;;12.30;6.72;;;9.10;99.90;;;;;;4986742;28;20452;-80
2024/02/18 09:13:48;;;;;;;15.30;7.65;;;9.10;99.90;;;;;;5005097;28;20044;-83
2024/02/18 09:16:14;;;;;;;14.85;8.00;;;9.10;99.90;;;;;;5013435;28;20037;-75
2024/02/18 09:18:41;;;;;;;14.23;7.60;;;9.10;99.90;;;;;;4984672;28;20037;-84
2024/02/18 09:21:07;;;;;;;14.48;8.18;;;9.10;99.90;;;;;;5016545;28;20045;-81
2024/02/18 09:23:33;;;;;;;16.67;7.70;;;9.10;99.90;;;;;;5018925;28;20022;-81
2024/02/18 09:26:00;;;;;;;7.32;5.40;;;9.00;99.90;;;;;;5003262;28;20052;-80
2024/02/18 09:28:26;;;;;;;16.92;9.93;;;9.10;99.90;;;;;;5003538;28;20029;-82
2024/02/18 09:30:54;;;;;;;15.32;8.18;;;9.00;99.90;;;;;;5022460;28;20032;-82
2024/02/18 09:33:20;;;;;;;10.05;7.82;;;9.00;99.90;;;;;;5018775;28;20419;-78
2024/02/18 09:35:47;;;;;;;12.70;8.77;;;9.00;99.90;;;;;;4997665;28;20030;-79
2024/02/18 09:38:13;;;;;;;15.80;9.85;;;9.10;99.90;;;;;;4997744;28;20381;-77
2024/02/18 09:40:39;;;;;;;17.20;9.73;;;9.10;99.90;;;;;;5004258;28;20034;-75
2024/02/18 09:43:07;;;;;;;17.92;10.27;;;9.10;99.90;;;;;;5019675;28;20392;-76
2024/02/18 09:45:36;;;;;;;19.30;11.40;;;9.00;99.90;;;;;;5017541;28;20419;-78
2024/02/18 09:48:07;;;;;;;12.77;9.23;;;9.10;99.90;;;;;;5015545;28;20033;-80
2024/02/18 09:50:35;;;;;;;15.30;7.28;;;9.00;99.90;;;;;;4983073;28;20534;-79
2024/02/18 09:53:04;;;;;;;16.63;7.85;;;9.00;99.90;;;;;;5022790;28;20336;-76
2024/02/18 09:55:30;;;;;;;15.88;7.18;;;9.00;99.90;;;;;;5014938;28;20025;-81
2024/02/18 09:57:57;;;;;;;14.55;7.22;;;9.10;99.90;;;;;;5015766;28;20052;-81
2024/02/18 10:00:25;;;;;;;18.17;8.35;;;9.00;99.90;;;;;;4998080;28;20481;-76
2024/02/18 10:02:52;;;;;;;17.40;8.70;;;9.00;99.90;;;;;;5013237;28;20035;-79
2024/02/18 10:05:18;;;;;;;12.20;7.53;;;9.00;99.90;;;;;;5018952;28;20464;-79
2024/02/18 10:07:45;;;;;;;13.95;8.38;;;9.10;99.90;;;;;;5015251;28;20396;-78
2024/02/18 10:10:11;;;;;;;11.45;8.15;;;9.10;99.90;;;;;;4981907;28;20467;-80
2024/02/18 10:12:39;;;;;;;13.63;7.00;;;9.10;99.90;;;;;;4986969;28;20052;-79
2024/02/18 10:15:07;;;;;;;12.20;7.53;;;9.10;99.90;;;;;;5000615;28;20041;-79
2024/02/18 10:17:33;;;;;;;18.50;8.45;;;9.10;99.90;;;;;;5002477;28;20034;-79
2024/02/18 10:20:00;;;;;;;11.80;6.22;;;9.10;99.90;;;;;;5015609;28;20033;-79
2024/02/18 10:22:27;;;;;;;13.48;8.05;;;9.10;99.90;;;;;;4982091;28;20029;-78
2024/02/18 10:24:53;;;;;;;20.02;9.25;;;9.20;99.90;;;;;;5000138;28;20511;-76
2024/02/18 10:27:20;;;;;;;16.02;8.07;;;9.20;99.90;;;;;;4995667;28;20041;-78
2024/02/18 10:29:47;;;;;;;14.35;8.82;;;9.20;99.90;;;;;;5014932;28;20250;-77
2024/02/18 10:32:16;;;;;;;11.48;6.88;;;9.20;99.90;;;;;;5001104;28;20523;-77
2024/02/18 10:34:44;;;;;;;14.73;7.32;;;9.20;99.90;;;;;;4983989;28;20045;-78
2024/02/18 10:37:36;;;;;;;15.10;6.68;;;9.20;99.90;;;;;;4999720;28;20029;-79
2024/02/18 10:40:14;;;;;;;16.13;6.93;;;9.20;99.90;;;;;;5001522;28;20053;-78
2024/02/18 10:42:51;;;;;;;19.73;8.25;;;9.20;99.90;;;;;;4998052;28;20052;-76
2024/02/18 10:45:18;;;;;;;20.50;9.38;;;9.10;99.90;;;;;;5014515;28;20265;-77
2024/02/18 10:47:50;;;;;;;16.65;7.90;;;9.10;99.90;;;;;;4999980;28;20034;-77
2024/02/18 10:50:17;;;;;;;11.50;6.47;;;9.00;99.90;;;;;;5015758;28;20045;-75
2024/02/18 10:52:56;;;;;;;11.98;6.35;;;9.10;99.90;;;;;;5015483;28;20033;-77
2024/02/18 10:55:29;;;;;;;11.27;5.93;;;9.20;99.90;;;;;;5018658;28;20044;-76
2024/02/18 10:58:14;;;;;;;14.75;5.65;;;9.20;99.90;;;;;;5018144;28;20042;-77
2024/02/18 11:00:45;;;;;;;8.50;5.95;;;9.20;99.90;;;;;;4999862;28;20591;-76
2024/02/18 11:03:21;;;;;;;11.18;5.05;;;9.20;99.90;;;;;;5045466;28;20625;-77
2024/02/18 11:05:50;;;;;;;9.25;4.97;;;9.20;99.90;;;;;;5028124;28;20033;-77
2024/02/18 11:08:18;;;;;;;13.25;5.13;;;9.30;99.90;;;;;;4995560;28;20028;-76
2024/02/18 11:10:44;;;;;;;10.60;5.65;;;9.20;99.90;;;;;;5019618;28;20052;-75
2024/02/18 11:13:13;;;;;;;11.02;5.22;;;9.20;99.90;;;;;;4982107;28;20045;-76
2024/02/18 11:15:39;;;;;;;8.30;4.88;;;9.20;99.90;;;;;;5000581;28;20492;-77
2024/02/18 11:18:08;;;;;;;10.93;5.55;;;9.30;99.90;;;;;;4995788;28;20033;-76
2024/02/18 11:20:35;;;;;;;10.65;5.03;;;9.20;99.90;;;;;;5015695;28;20029;-76
2024/02/18 11:23:02;;;;;;;9.43;4.70;;;9.20;99.90;;;;;;5013931;28;20215;-76
2024/02/18 11:25:29;;;;;;;10.98;4.93;;;9.20;99.90;;;;;;5011004;28;20381;-78
2024/02/18 11:27:55;;;;;;;9.73;4.90;;;9.30;99.90;;;;;;5000122;28;20053;-76
2024/02/18 11:30:21;;;;;;;12.55;4.43;;;9.20;99.90;;;;;;4997110;28;20044;-77
2024/02/18 11:32:48;;;;;;;10.07;5.03;;;9.30;99.90;;;;;;5011949;28;20037;-76
2024/02/18 11:35:18;;;;;;;12.40;5.03;;;9.20;99.90;;;;;;5016612;28;20034;-77
2024/02/18 11:37:45;;;;;;;8.15;5.10;;;9.20;99.90;;;;;;5031653;28;20033;-76
2024/02/18 11:40:18;;;;;;;11.00;4.88;;;9.20;99.90;;;;;;4998401;28;20052;-77
2024/02/18 11:42:46;;;;;;;9.23;4.50;;;9.20;99.90;;;;;;4999606;28;20034;-78
2024/02/18 11:45:20;;;;;;;10.00;4.60;;;9.20;99.90;;;;;;4987588;28;20038;-75
2024/02/18 11:47:50;;;;;;;9.20;4.25;;;9.10;99.90;;;;;;4999946;28;20411;-76
2024/02/18 11:50:18;;;;;;;12.25;4.85;;;9.10;99.90;;;;;;4995895;28;20377;-76
2024/02/18 11:52:49;;;;;;;8.52;4.25;;;9.00;99.90;;;;;;5015189;28;20061;-76
2024/02/18 11:55:20;;;;;;;10.15;4.78;;;9.00;99.90;;;;;;5013792;28;20036;-77
2024/02/18 11:57:48;;;;;;;11.23;5.03;;;9.00;99.90;;;;;;5014753;28;20030;-76
2024/02/18 12:00:19;;;;;;;9.98;4.38;;;9.00;99.90;;;;;;5012412;28;20487;-76
2024/02/18 12:02:55;;;;;;;6.07;4.15;;;9.00;99.90;;;;;;4983033;28;20034;-77
2024/02/18 12:05:23;;;;;;;11.95;4.90;;;9.00;99.90;;;;;;5011458;28;20030;-76
2024/02/18 12:07:58;;;;;;;14.32;4.55;;;9.00;99.90;;;;;;5030830;28;20490;-76
2024/02/18 12:10:24;;;;;;;13.10;5.43;;;9.00;99.90;;;;;;5000999;28;20037;-77
2024/02/18 12:12:50;;;;;;;10.32;5.07;;;8.90;99.90;;;;;;5016217;28;20044;-76
2024/02/18 12:15:25;;;;;;;7.22;5.35;;;8.90;99.90;;;;;;5001042;28;20473;-76
2024/02/18 12:17:55;;;;;;;13.77;7.22;;;8.90;99.90;;;;;;5012207;28;20037;-79
2024/02/18 12:20:27;;;;;;;11.38;6.70;;;8.90;99.90;;;;;;4995313;28;20481;-78
2024/02/18 12:22:56;;;;;;;15.03;5.83;;;8.90;99.90;;;;;;5002529;28;20044;-74
2024/02/18 12:25:23;;;;;;;13.52;5.95;;;8.90;99.90;;;;;;4999680;28;20473;-77
2024/02/18 12:27:49;;;;;;;7.60;4.72;;;8.90;99.90;;;;;;4992710;28;20041;-77
2024/02/18 12:30:16;;;;;;;6.28;4.63;;;8.90;99.90;;;;;;4995016;28;20025;-77
2024/02/18 12:32:42;;;;;;;7.80;5.15;;;8.90;99.90;;;;;;5010203;28;20052;-77
2024/02/18 12:35:10;;;;;;;9.48;5.28;;;8.90;99.90;;;;;;5020284;28;20044;-78
2024/02/18 12:37:36;;;;;;;12.48;5.78;;;8.80;99.90;;;;;;4982053;28;20067;-77
2024/02/18 12:40:05;;;;;;;12.70;5.78;;;8.80;99.90;;;;;;5011598;28;20044;-77
2024/02/18 12:42:31;;;;;;;12.63;5.20;;;8.80;99.90;;;;;;4998942;28;20033;-77
2024/02/18 12:44:58;;;;;;;9.77;5.20;;;8.90;99.90;;;;;;5000333;28;20476;-77